createdAt,value
2019-04-03T00:02:04.750Z,95390.05
2019-04-03T00:04:30.296Z,95392.41
2019-04-03T00:06:56.318Z,95388.80
2019-04-03T00:09:22.331Z,95387.08
2019-04-03T00:11:48.368Z,95379.98
2019-04-03T00:14:14.420Z,95384.91
2019-04-03T00:16:40.416Z,95387.45
2019-04-03T00:19:06.430Z,95379.98
2019-04-03T00:21:32.419Z,95376.91
2019-04-03T00:23:58.435Z,95373.83
2019-04-03T00:26:24.468Z,95375.16
2019-04-03T00:28:50.703Z,95376.08
2019-04-03T00:31:16.528Z,95377.83
2019-04-03T00:33:42.533Z,95376.48
2019-04-03T00:36:08.545Z,95372.48
2019-04-03T00:38:34.541Z,95370.33
2019-04-03T00:41:00.565Z,95366.32
2019-04-03T00:43:26.558Z,95368.08
2019-04-03T00:45:54.146Z,95363.27
2019-04-03T00:48:18.604Z,95358.86
2019-04-03T00:50:44.631Z,95357.61
2019-04-03T00:53:10.640Z,95358.44
2019-04-03T00:55:36.645Z,95353.11
2019-04-03T00:58:02.644Z,95352.69
2019-04-03T01:00:28.640Z,95352.19
2019-04-03T01:02:54.663Z,95349.61
2019-04-03T01:05:20.684Z,95352.27
2019-04-03T01:07:46.684Z,95348.27
2019-04-03T01:10:12.707Z,95346.52
2019-04-03T01:12:38.727Z,95351.36
2019-04-03T01:15:04.881Z,95345.19
2019-04-03T01:17:30.770Z,95346.94
2019-04-03T01:19:56.784Z,95346.14
2019-04-03T01:22:22.764Z,95347.47
2019-04-03T01:24:48.833Z,95345.72
2019-04-03T01:27:14.853Z,95346.64
2019-04-03T01:29:42.596Z,95342.22
2019-04-03T01:32:06.913Z,95340.47
2019-04-03T01:34:33.040Z,95336.89
2019-04-03T01:36:59.051Z,95341.80
2019-04-03T01:39:25.066Z,95336.47
2019-04-03T01:41:51.522Z,95333.80
2019-04-03T01:44:17.092Z,95322.34
2019-04-03T01:46:43.131Z,95328.47
2019-04-03T01:49:10.703Z,95324.05
2019-04-03T01:51:35.248Z,95317.00
2019-04-03T01:54:02.861Z,95316.05
2019-04-03T01:56:27.274Z,95317.50
2019-04-03T01:58:53.389Z,95321.39
2019-04-03T02:01:19.380Z,95316.59
2019-04-03T02:03:45.377Z,95317.39
2019-04-03T02:06:13.189Z,95316.05
2019-04-03T02:08:37.486Z,95324.05
2019-04-03T02:11:03.501Z,95317.92
2019-04-03T02:13:29.522Z,95315.25
2019-04-03T02:15:55.563Z,95318.84
2019-04-03T02:18:21.553Z,95317.09
2019-04-03T02:20:47.672Z,95318.42
2019-04-03T02:23:13.584Z,95314.92
2019-04-03T02:25:39.593Z,95315.75
2019-04-03T02:28:05.609Z,95311.76
2019-04-03T02:30:31.613Z,95319.34
2019-04-03T02:32:58.122Z,95317.09
2019-04-03T02:35:23.756Z,95315.88
2019-04-03T02:37:50.768Z,95323.88
2019-04-03T02:40:15.835Z,95314.54
2019-04-03T02:42:42.425Z,95322.13
2019-04-03T02:45:07.945Z,95316.25
2019-04-03T02:47:34.655Z,95321.70
2019-04-03T02:50:00.239Z,95317.70
2019-04-03T02:52:26.056Z,95314.63
2019-04-03T02:54:52.010Z,95314.13
2019-04-03T02:57:18.501Z,95315.04
2019-04-03T02:59:44.114Z,95317.29
2019-04-03T03:02:12.579Z,95317.70
2019-04-03T03:04:36.135Z,95315.54
2019-04-03T03:07:04.494Z,95316.88
2019-04-03T03:09:28.175Z,95318.20
2019-04-03T03:11:56.120Z,95321.79
2019-04-03T03:14:20.257Z,95320.87
2019-04-03T03:16:49.290Z,95320.98
2019-04-03T03:19:12.374Z,95326.73
2019-04-03T03:21:38.416Z,95325.41
2019-04-03T03:24:04.419Z,95322.33
2019-04-03T03:26:30.409Z,95324.08
2019-04-03T03:28:56.778Z,95323.66
2019-04-03T03:31:44.538Z,95328.98
2019-04-03T03:33:48.536Z,95324.58
2019-04-03T03:36:19.592Z,95327.73
2019-04-03T03:38:40.901Z,95319.33
2019-04-03T03:41:06.805Z,95324.66
2019-04-03T03:43:37.060Z,95317.98
2019-04-03T03:45:58.829Z,95322.41
2019-04-03T03:48:24.637Z,95320.66
2019-04-03T03:50:50.664Z,95318.41
2019-04-03T03:53:16.675Z,95318.41
2019-04-03T03:55:43.432Z,95319.73
2019-04-03T03:58:12.555Z,95317.98
2019-04-03T04:00:34.752Z,95317.61
2019-04-03T04:03:00.779Z,95324.66
2019-04-03T04:05:27.164Z,95324.66
2019-04-03T04:07:53.495Z,95325.61
2019-04-03T04:10:18.894Z,95329.19
2019-04-03T04:12:45.031Z,95333.61
2019-04-03T04:15:10.947Z,95339.02
2019-04-03T04:17:36.965Z,95336.77
2019-04-03T04:20:05.366Z,95332.77
2019-04-03T04:22:29.192Z,95333.27
2019-04-03T04:24:55.348Z,95335.94
2019-04-03T04:27:21.176Z,95342.61
2019-04-03T04:29:47.038Z,95336.86
2019-04-03T04:32:14.909Z,95337.27
2019-04-03T04:34:39.065Z,95342.11
2019-04-03T04:37:05.114Z,95338.72
2019-04-03T04:39:31.114Z,95337.27
2019-04-03T04:41:57.124Z,95335.52
2019-04-03T04:44:23.121Z,95342.19
2019-04-03T04:46:49.186Z,95336.97
2019-04-03T04:49:15.205Z,95341.27
2019-04-03T04:51:41.379Z,95341.19
2019-04-03T04:54:07.277Z,95343.02
2019-04-03T04:56:33.338Z,95341.27
2019-04-03T04:58:59.444Z,95339.94
2019-04-03T05:01:25.461Z,95340.27
2019-04-03T05:03:53.470Z,95339.86
2019-04-03T05:06:17.492Z,95340.27
2019-04-03T05:08:43.515Z,95340.16
2019-04-03T05:11:09.622Z,95343.66
2019-04-03T05:13:35.808Z,95340.79
2019-04-03T05:16:01.691Z,95338.92
2019-04-03T05:18:29.306Z,95335.75
2019-04-03T05:20:54.029Z,95340.67
2019-04-03T05:23:19.796Z,95336.67
2019-04-03T05:25:45.767Z,95337.20
2019-04-03T05:28:11.828Z,95336.26
2019-04-03T05:30:38.022Z,95334.63
2019-04-03T05:33:03.983Z,95334.63
2019-04-03T05:35:29.993Z,95332.38
2019-04-03T05:37:56.017Z,95328.45
2019-04-03T05:40:22.232Z,95334.63
2019-04-03T05:42:48.098Z,95327.95
2019-04-03T05:45:14.115Z,95323.03
2019-04-03T05:47:40.250Z,95322.53
2019-04-03T05:50:06.167Z,95318.92
2019-04-03T05:52:33.146Z,95322.42
2019-04-03T05:54:58.296Z,95318.92
2019-04-03T05:57:24.320Z,95319.67
2019-04-03T06:00:00.047Z,95324.47
2019-04-03T06:02:20.004Z,95320.05
2019-04-03T06:04:42.722Z,95319.25
2019-04-03T06:07:08.498Z,95320.47
2019-04-03T06:09:34.513Z,95310.22
2019-04-03T06:12:00.649Z,95315.05
2019-04-03T06:14:26.986Z,95313.41
2019-04-03T06:16:55.549Z,95312.41
2019-04-03T06:19:18.957Z,95311.48
2019-04-03T06:21:46.159Z,95312.61
2019-04-03T06:24:11.020Z,95315.69
2019-04-03T06:26:44.638Z,95313.73
2019-04-03T06:29:09.528Z,95318.77
2019-04-03T06:31:35.428Z,95309.52
2019-04-03T06:34:01.431Z,95310.97
2019-04-03T06:36:27.423Z,95304.92
2019-04-03T06:38:54.273Z,95305.73
2019-04-03T06:41:19.447Z,95306.67
2019-04-03T06:43:47.218Z,95313.43
2019-04-03T06:46:11.483Z,95307.59
2019-04-03T06:48:37.484Z,95312.92
2019-04-03T06:51:03.619Z,95311.17
2019-04-03T06:53:29.634Z,95306.77
2019-04-03T06:55:55.667Z,95307.67
2019-04-03T06:58:21.715Z,95295.55
2019-04-03T07:00:47.726Z,95307.80
2019-04-03T07:03:13.894Z,95309.55
2019-04-03T07:05:41.931Z,95308.71
2019-04-03T07:08:06.124Z,95312.30
2019-04-03T07:10:31.809Z,95312.21
2019-04-03T07:12:57.845Z,95309.62
2019-04-03T07:15:24.587Z,95307.80
2019-04-03T07:17:49.887Z,95301.13
2019-04-03T07:20:19.754Z,95305.02
2019-04-03T07:22:42.029Z,95309.93
2019-04-03T07:25:08.089Z,95304.30
2019-04-03T07:27:36.578Z,95299.08
2019-04-03T07:30:00.368Z,95305.33
2019-04-03T07:32:26.254Z,95310.33
2019-04-03T07:34:52.260Z,95306.03
2019-04-03T07:37:19.939Z,95312.70
2019-04-03T07:39:44.191Z,95310.03
2019-04-03T07:42:10.179Z,95312.28
2019-04-03T07:44:36.198Z,95312.28
2019-04-03T07:47:04.664Z,95308.40
2019-04-03T07:49:30.034Z,95314.12
2019-04-03T07:51:55.734Z,95315.56
2019-04-03T07:54:22.618Z,95311.98
2019-04-03T07:56:47.812Z,95312.91
2019-04-03T07:59:13.953Z,95309.81
2019-04-03T08:01:41.360Z,95314.23
2019-04-03T08:04:05.858Z,95310.31
2019-04-03T08:06:34.470Z,95307.66
2019-04-03T08:09:07.249Z,95306.31
2019-04-03T08:11:23.920Z,95310.31
2019-04-03T08:13:50.082Z,95308.98
2019-04-03T08:16:16.628Z,95303.27
2019-04-03T08:18:41.971Z,95304.60
2019-04-03T08:21:08.238Z,95307.27
2019-04-03T08:23:34.685Z,95306.85
2019-04-03T08:26:00.047Z,95310.14
2019-04-03T08:28:29.658Z,95308.80
2019-04-03T08:30:52.295Z,95299.55
2019-04-03T08:33:20.884Z,95293.50
2019-04-03T08:35:44.250Z,95294.84
2019-04-03T08:38:12.384Z,95294.84
2019-04-03T08:40:36.382Z,95295.34
2019-04-03T08:43:02.391Z,95291.34
2019-04-03T08:45:28.716Z,95294.42
2019-04-03T08:47:54.401Z,95292.17
2019-04-03T08:50:20.411Z,95294.84
2019-04-03T08:52:46.710Z,95284.67
2019-04-03T08:55:14.021Z,95285.92
2019-04-03T08:57:38.722Z,95281.92
2019-04-03T09:00:04.946Z,95282.34
2019-04-03T09:02:32.080Z,95281.00
2019-04-03T09:04:58.111Z,95265.39
2019-04-03T09:07:26.826Z,95266.72
2019-04-03T09:09:53.772Z,95260.89
2019-04-03T09:12:19.823Z,95262.72
2019-04-03T09:14:47.646Z,95256.05
2019-04-03T09:17:13.636Z,95252.39
2019-04-03T09:19:44.968Z,95249.72
2019-04-03T09:22:17.038Z,95250.13
2019-04-03T09:24:43.106Z,95239.47
2019-04-03T09:27:10.069Z,95234.14
2019-04-03T09:29:35.647Z,95239.85
2019-04-03T09:32:01.639Z,95234.02
2019-04-03T09:34:29.681Z,95230.84
2019-04-03T09:36:54.202Z,95221.93
2019-04-03T09:39:20.110Z,95221.93
2019-04-03T09:41:48.851Z,95212.59
2019-04-03T09:44:13.510Z,95214.23
2019-04-03T09:46:39.536Z,95207.65
2019-04-03T09:49:07.451Z,95205.40
2019-04-03T09:51:31.793Z,95200.98
2019-04-03T09:53:58.112Z,95204.06
2019-04-03T09:56:23.839Z,95195.64
2019-04-03T09:58:49.895Z,95188.18
2019-04-03T10:01:18.518Z,95195.27
2019-04-03T10:03:41.948Z,95189.59
2019-04-03T10:06:07.949Z,95184.98
2019-04-03T10:08:33.993Z,95183.27
2019-04-03T10:11:00.255Z,95175.64
2019-04-03T10:13:26.351Z,95170.02
2019-04-03T10:15:52.027Z,95166.13
2019-04-03T10:18:18.735Z,95162.44
2019-04-03T10:20:44.299Z,95159.77
2019-04-03T10:23:10.068Z,95155.27
2019-04-03T10:25:37.056Z,95152.06
2019-04-03T10:28:02.258Z,95152.59
2019-04-03T10:30:28.161Z,95145.09
2019-04-03T10:32:54.184Z,95140.18
2019-04-03T10:35:20.176Z,95136.06
2019-04-03T10:37:47.141Z,95132.06
2019-04-03T10:40:13.093Z,95126.31
2019-04-03T10:42:39.093Z,95125.81
2019-04-03T10:45:04.848Z,95126.23
2019-04-03T10:47:41.098Z,95116.48
2019-04-03T10:49:56.884Z,95115.14
2019-04-03T10:52:22.906Z,95113.72
2019-04-03T10:54:49.318Z,95113.72
2019-04-03T10:57:14.931Z,95103.44
2019-04-03T10:59:41.263Z,95104.39
2019-04-03T11:02:07.359Z,95104.27
2019-04-03T11:04:32.981Z,95102.94
2019-04-03T11:06:59.082Z,95099.77
2019-04-03T11:09:24.999Z,95091.77
2019-04-03T11:11:51.007Z,95092.18
2019-04-03T11:14:17.038Z,95075.23
2019-04-03T11:16:45.490Z,95079.77
2019-04-03T11:19:09.072Z,95071.23
2019-04-03T11:21:35.438Z,95074.31
2019-04-03T11:24:01.293Z,95067.64
2019-04-03T11:26:27.206Z,95064.56
2019-04-03T11:28:53.878Z,95057.39
2019-04-03T11:31:25.819Z,95054.73
2019-04-03T11:33:46.294Z,95054.31
2019-04-03T11:36:11.372Z,95049.81
2019-04-03T11:38:37.365Z,95033.30
2019-04-03T11:41:12.391Z,95036.39
2019-04-03T11:43:30.990Z,95047.05
2019-04-03T11:45:55.415Z,95035.44
2019-04-03T11:48:21.444Z,95038.44
2019-04-03T11:50:47.459Z,95034.31
2019-04-03T11:53:13.677Z,95021.39
2019-04-03T11:55:41.319Z,95021.18
2019-04-03T11:58:05.772Z,95014.52
2019-04-03T12:00:31.575Z,95013.09
2019-04-03T12:02:57.691Z,95007.22
2019-04-03T12:05:23.935Z,95005.38
2019-04-03T12:07:50.084Z,95005.27
2019-04-03T12:10:15.747Z,95001.68
2019-04-03T12:12:42.042Z,94994.59
2019-04-03T12:15:07.774Z,94994.59
2019-04-03T12:17:33.771Z,94992.77
2019-04-03T12:19:59.900Z,94987.34
2019-04-03T12:22:25.842Z,94988.84
2019-04-03T12:24:51.843Z,94985.80
2019-04-03T12:27:17.921Z,94983.13
2019-04-03T12:29:44.275Z,94977.25
2019-04-03T12:32:10.406Z,94978.80
2019-04-03T12:34:37.284Z,94974.80
2019-04-03T12:37:02.433Z,94961.37
2019-04-03T12:39:28.796Z,94968.42
2019-04-03T12:41:54.403Z,94963.50
2019-04-03T12:44:21.489Z,94968.75
2019-04-03T12:46:46.739Z,94952.83
2019-04-03T12:49:12.812Z,94951.41
2019-04-03T12:51:38.982Z,94951.82
2019-04-03T12:54:04.554Z,94952.95
2019-04-03T12:56:30.943Z,94945.86
2019-04-03T12:58:56.565Z,94950.16
2019-04-03T13:01:23.419Z,94944.31
2019-04-03T13:03:48.570Z,94937.64
2019-04-03T13:06:14.906Z,94955.08
2019-04-03T13:08:40.635Z,94943.07
2019-04-03T13:11:06.665Z,94939.28
2019-04-03T13:13:32.698Z,94941.45
2019-04-03T13:15:58.750Z,94941.53
2019-04-03T13:18:24.750Z,94940.73
2019-04-03T13:20:50.987Z,94935.41
2019-04-03T13:23:16.809Z,94941.53
2019-04-03T13:25:43.225Z,94939.81
2019-04-03T13:28:08.808Z,94941.66
2019-04-03T13:30:34.841Z,94940.20
2019-04-03T13:33:05.402Z,94934.36
2019-04-03T13:35:26.882Z,94933.03
2019-04-03T13:37:53.137Z,94934.77
2019-04-03T13:40:18.967Z,94926.66
2019-04-03T13:42:47.637Z,94930.77
2019-04-03T13:45:11.302Z,94934.15
2019-04-03T13:47:40.202Z,94928.81
2019-04-03T13:50:03.646Z,94931.07
2019-04-03T13:52:39.971Z,94925.64
2019-04-03T13:54:57.613Z,94924.31
2019-04-03T13:57:21.506Z,94931.89
2019-04-03T13:59:47.177Z,94924.41
2019-04-03T14:02:14.570Z,94922.05
2019-04-03T14:04:39.220Z,94927.27
2019-04-03T14:07:07.296Z,94923.27
2019-04-03T14:09:31.253Z,94925.11
2019-04-03T14:12:00.348Z,94919.27
2019-04-03T14:14:23.455Z,94920.19
2019-04-03T14:16:49.317Z,94921.52
2019-04-03T14:19:15.480Z,94914.85
2019-04-03T14:21:41.730Z,94917.52
2019-04-03T14:24:08.934Z,94919.39
2019-04-03T14:26:33.819Z,94909.42
2019-04-03T14:28:59.448Z,94918.34
2019-04-03T14:31:34.351Z,94917.52
2019-04-03T14:33:51.874Z,94913.11
2019-04-03T14:36:19.142Z,94911.77
2019-04-03T14:38:43.582Z,94910.44
2019-04-03T14:41:09.608Z,94907.89
2019-04-03T14:43:35.683Z,94902.05
2019-04-03T14:46:01.712Z,94898.64
2019-04-03T14:48:27.699Z,94898.14
2019-04-03T14:50:53.718Z,94902.56
2019-04-03T14:53:21.242Z,94889.73
2019-04-03T14:55:49.682Z,94901.73
2019-04-03T14:58:12.083Z,94903.06
2019-04-03T15:00:38.072Z,94896.80
2019-04-03T15:03:04.838Z,94907.19
2019-04-03T15:05:30.131Z,94908.93
2019-04-03T15:07:56.138Z,94910.27
2019-04-03T15:10:22.168Z,94905.02
2019-04-03T15:12:48.218Z,94908.61
2019-04-03T15:15:14.256Z,94909.65
2019-04-03T15:17:40.282Z,94906.69
2019-04-03T15:20:06.322Z,94909.73
2019-04-03T15:22:33.201Z,94905.86
2019-04-03T15:24:58.409Z,94906.90
2019-04-03T15:27:25.576Z,94911.82
2019-04-03T15:29:50.417Z,94906.99
2019-04-03T15:32:18.701Z,94912.33
2019-04-03T15:34:42.673Z,94910.79
2019-04-03T15:37:09.141Z,94909.58
2019-04-03T15:39:34.442Z,94916.66
2019-04-03T15:42:00.866Z,94920.34
2019-04-03T15:44:27.659Z,94915.00
2019-04-03T15:46:52.820Z,94911.92
2019-04-03T15:49:18.556Z,94918.20
2019-04-03T15:51:44.476Z,94910.71
2019-04-03T15:54:10.478Z,94919.21
2019-04-03T15:56:36.741Z,94910.41
2019-04-03T15:59:02.954Z,94915.33
2019-04-03T16:01:28.798Z,94915.33
2019-04-03T16:03:54.582Z,94920.67
2019-04-03T16:06:20.553Z,94917.67
2019-04-03T16:08:47.905Z,94919.02
2019-04-03T16:11:12.610Z,94919.96
2019-04-03T16:13:38.658Z,94924.47
2019-04-03T16:16:05.138Z,94922.84
2019-04-03T16:18:30.744Z,94929.09
2019-04-03T16:20:57.220Z,94929.09
2019-04-03T16:23:23.023Z,94922.84
2019-04-03T16:25:49.755Z,94925.72
2019-04-03T16:28:15.111Z,94926.63
2019-04-03T16:30:40.793Z,94929.30
2019-04-03T16:33:19.404Z,94935.55
2019-04-03T16:35:33.791Z,94936.68
2019-04-03T16:38:00.306Z,94934.43
2019-04-03T16:40:25.904Z,94934.84
2019-04-03T16:42:52.998Z,94934.02
2019-04-03T16:45:17.963Z,94936.39
2019-04-03T16:47:44.961Z,94931.44
2019-04-03T16:50:09.968Z,94936.77
2019-04-03T16:52:37.677Z,94943.86
2019-04-03T16:55:02.322Z,94937.19
2019-04-03T16:57:28.654Z,94939.86
2019-04-03T16:59:54.165Z,94942.52
2019-04-03T17:02:23.869Z,94940.39
2019-04-03T17:04:46.187Z,94945.09
2019-04-03T17:07:12.196Z,94945.89
2019-04-03T17:09:39.298Z,94946.64
2019-04-03T17:12:04.221Z,94951.34
2019-04-03T17:14:30.250Z,94953.89
2019-04-03T17:16:56.251Z,94957.68
2019-04-03T17:19:22.500Z,94958.51
2019-04-03T17:21:48.632Z,94954.80
2019-04-03T17:24:16.070Z,94964.55
2019-04-03T17:26:49.790Z,94967.12
2019-04-03T17:29:06.906Z,94969.59
2019-04-03T17:31:32.974Z,94964.88
2019-04-03T17:33:58.886Z,94974.00
2019-04-03T17:36:24.868Z,94978.92
2019-04-03T17:38:50.864Z,94982.38
2019-04-03T17:41:16.880Z,94986.39
2019-04-03T17:43:43.325Z,94983.42
2019-04-03T17:46:08.939Z,94986.22
2019-04-03T17:48:34.943Z,94990.72
2019-04-03T17:51:02.531Z,94990.72
2019-04-03T17:53:26.964Z,94994.72
2019-04-03T17:55:52.969Z,94997.09
2019-04-03T17:58:19.084Z,94999.84
2019-04-03T18:00:45.112Z,95001.59
2019-04-03T18:03:11.152Z,95008.14
2019-04-03T18:05:37.169Z,95007.55
2019-04-03T18:08:03.182Z,95016.77
2019-04-03T18:10:29.216Z,95017.68
2019-04-03T18:12:55.251Z,95018.22
2019-04-03T18:15:21.266Z,95020.35
2019-04-03T18:17:47.261Z,95025.27
2019-04-03T18:20:13.536Z,95022.39
2019-04-03T18:22:39.412Z,95023.22
2019-04-03T18:25:08.139Z,95022.59
2019-04-03T18:27:33.240Z,95027.94
2019-04-03T18:29:57.903Z,95024.97
2019-04-03T18:32:23.940Z,95025.59
2019-04-03T18:34:51.324Z,95030.22
2019-04-03T18:37:16.045Z,95030.81
2019-04-03T18:39:42.055Z,95031.23
2019-04-03T18:42:08.075Z,95026.81
2019-04-03T18:44:34.256Z,95028.35
2019-04-03T18:47:00.390Z,95026.22
2019-04-03T18:49:26.402Z,95026.22
2019-04-03T18:51:52.409Z,95026.31
2019-04-03T18:54:18.551Z,95022.72
2019-04-03T18:56:45.977Z,95021.09
2019-04-03T18:59:10.587Z,95019.85
2019-04-03T19:01:37.974Z,95023.34
2019-04-03T19:04:02.580Z,95026.10
2019-04-03T19:06:28.618Z,95027.55
2019-04-03T19:08:54.634Z,95034.73
2019-04-03T19:11:20.627Z,95032.77
2019-04-03T19:13:49.346Z,95030.64
2019-04-03T19:16:16.558Z,95030.22
2019-04-03T19:18:38.949Z,95030.73
2019-04-03T19:21:04.951Z,95027.64
2019-04-03T19:23:30.951Z,95034.31
2019-04-03T19:25:59.667Z,95032.98
2019-04-03T19:28:23.202Z,95032.06
2019-04-03T19:30:49.263Z,95040.48
2019-04-03T19:33:15.295Z,95046.64
2019-04-03T19:35:41.306Z,95035.14
2019-04-03T19:38:07.338Z,95036.06
2019-04-03T19:40:33.343Z,95040.06
2019-04-03T19:42:59.407Z,95037.09
2019-04-03T19:45:25.456Z,95042.31
2019-04-03T19:47:54.561Z,95046.31
2019-04-03T19:50:17.486Z,95042.73
2019-04-03T19:52:43.487Z,95042.73
2019-04-03T19:55:09.533Z,95040.48
2019-04-03T19:57:35.598Z,95044.98
2019-04-03T20:00:03.170Z,95044.48
2019-04-03T20:02:27.658Z,95046.73
2019-04-03T20:04:53.674Z,95042.73
2019-04-03T20:07:19.876Z,95043.64
2019-04-03T20:09:45.933Z,95044.77
2019-04-03T20:12:11.926Z,95045.19
2019-04-03T20:14:37.933Z,95046.84
2019-04-03T20:17:03.960Z,95045.52
2019-04-03T20:19:29.972Z,95044.56
2019-04-03T20:21:56.094Z,95041.39
2019-04-03T20:24:24.976Z,95055.02
2019-04-03T20:26:48.098Z,95052.36
2019-04-03T20:29:14.090Z,95052.77
2019-04-03T20:31:40.916Z,95051.44
2019-04-03T20:34:06.103Z,95054.43
2019-04-03T20:36:32.106Z,95050.31
2019-04-03T20:38:58.408Z,95054.31
2019-04-03T20:41:24.145Z,95054.73
2019-04-03T20:43:50.183Z,95051.77
2019-04-03T20:46:16.193Z,95055.14
2019-04-03T20:48:42.218Z,95050.31
2019-04-03T20:51:09.081Z,95052.98
2019-04-03T20:53:34.400Z,95047.64
2019-04-03T20:56:00.413Z,95057.81
2019-04-03T20:58:26.408Z,95056.98
2019-04-03T21:01:05.864Z,95059.56
2019-04-03T21:03:18.421Z,95055.94
2019-04-03T21:05:44.423Z,95068.48
2019-04-03T21:08:10.423Z,95069.69
2019-04-03T21:10:36.472Z,95066.23
2019-04-03T21:13:02.469Z,95070.11
2019-04-03T21:15:28.532Z,95074.11
2019-04-03T21:17:54.560Z,95075.14
2019-04-03T21:20:21.903Z,95071.65
2019-04-03T21:22:46.638Z,95076.48
2019-04-03T21:25:12.669Z,95076.98
2019-04-03T21:27:40.188Z,95072.98
2019-04-03T21:30:04.707Z,95077.48
2019-04-03T21:32:30.719Z,95082.81
2019-04-03T21:34:56.749Z,95086.44
2019-04-03T21:37:22.743Z,95086.02
2019-04-03T21:39:48.744Z,95090.44
2019-04-03T21:42:14.794Z,95093.19
2019-04-03T21:44:40.821Z,95090.11
2019-04-03T21:47:06.808Z,95091.98
2019-04-03T21:49:33.493Z,95090.64
2019-04-03T21:51:59.487Z,95096.89
2019-04-03T21:54:26.856Z,95096.06
2019-04-03T21:56:51.507Z,95092.06
2019-04-03T21:59:17.653Z,95091.65
2019-04-03T22:01:45.259Z,95098.94
2019-04-03T22:04:09.696Z,95097.10
2019-04-03T22:06:35.707Z,95101.52
2019-04-03T22:09:01.764Z,95097.19
2019-04-03T22:11:27.788Z,95097.61
2019-04-03T22:13:53.814Z,95099.06
2019-04-03T22:16:20.577Z,95098.64
2019-04-03T22:18:45.843Z,95099.56
2019-04-03T22:21:11.860Z,95095.56
2019-04-03T22:23:37.847Z,95094.73
2019-04-03T22:26:03.884Z,95090.31
2019-04-03T22:28:29.890Z,95091.23
2019-04-03T22:30:55.943Z,95097.52
2019-04-03T22:33:21.953Z,95097.90
2019-04-03T22:35:47.964Z,95097.61
2019-04-03T22:38:14.034Z,95094.02
2019-04-03T22:40:40.797Z,95099.35
2019-04-03T22:43:06.062Z,95095.05
2019-04-03T22:45:32.069Z,95094.52
2019-04-03T22:47:58.066Z,95092.39
2019-04-03T22:50:24.097Z,95093.72
2019-04-03T22:52:50.123Z,95096.89
2019-04-03T22:55:16.142Z,95092.48
2019-04-03T22:57:42.155Z,95091.56
2019-04-03T23:00:08.181Z,95090.73
2019-04-03T23:02:34.193Z,95088.98
2019-04-03T23:05:00.187Z,95089.39
2019-04-03T23:07:26.213Z,95090.84
2019-04-03T23:09:52.206Z,95084.18
2019-04-03T23:12:18.236Z,95088.59
2019-04-03T23:14:44.260Z,95084.18
2019-04-03T23:17:11.934Z,95089.52
2019-04-03T23:19:36.274Z,95078.02
2019-04-03T23:22:02.326Z,95081.60
2019-04-03T23:24:28.922Z,95083.05
2019-04-03T23:26:54.348Z,95081.60
2019-04-03T23:29:20.348Z,95083.47
2019-04-03T23:31:46.487Z,95079.05
2019-04-03T23:34:12.483Z,95086.64
2019-04-03T23:36:38.480Z,95087.47
2019-04-03T23:39:04.510Z,95081.30
2019-04-03T23:41:30.503Z,95082.22
2019-04-03T23:43:56.517Z,95082.22
2019-04-03T23:46:22.518Z,95075.14
2019-04-03T23:48:49.020Z,95075.55
2019-04-03T23:51:23.060Z,95081.92
2019-04-03T23:53:40.537Z,95079.67
2019-04-03T23:56:07.372Z,95073.02
2019-04-03T23:58:32.662Z,95073.52
